^^
MeteoGriva-Weather Station Historical Data
Daily Summary for January 8, 2020 Units:  Metric    English   Both
Daily Weekly Monthly Yearly Custom
  High: Low: Average:
Temperature: 16.2 °C 8 °C 11.4 °C
Dew Point: 12.6 °C 7.9 °C 10 °C
Humidity: 99% 78.7% 92%
Wind Speed: 3.5km/h 0km/h 0.3km/h
Wind Gust: 16.3km/h - -
Wind- - SSE
Pressure: 1029.1 hPa 1022.0 hPa -
Precipitation: 0.0 mm    
Historical Graphs
 
 
Tabular Data for January 8, 2020
Time Temperature Dew Point Pressure Wind Wind Speed Wind Gust Humidity Rainfall Rate (Hourly) solar
00:04 10.5 °C 9.2 °C 1028.8 hPa Calm     91.6% 0.0 mm 0 W/m2
00:09 10.5 °C 9.3 °C 1028.8 hPa Calm     92.3% 0.0 mm 0 W/m2
00:14 10.4 °C 9.1 °C 1029.1 hPa Calm     91.5% 0.0 mm 0 W/m2
00:19 10.3 °C 9.1 °C 1029.1 hPa Calm     92.3% 0.0 mm 0 W/m2
00:24 10.1 °C 8.9 °C 1029.1 hPa Calm     92.3% 0.0 mm 0 W/m2
00:29 10.1 °C 8.9 °C 1029.1 hPa Calm     92.1% 0.0 mm 0 W/m2
00:34 10.1 °C 9 °C 1029.1 hPa Calm     93% 0.0 mm 0 W/m2
00:39 10 °C 8.9 °C 1029.1 hPa Calm     93% 0.0 mm 0 W/m2
00:44 9.9 °C 8.8 °C 1029.1 hPa Calm     93.2% 0.0 mm 0 W/m2
00:49 9.9 °C 9 °C 1029.1 hPa Calm     93.9% 0.0 mm 0 W/m2
00:54 9.8 °C 9 °C 1029.1 hPa Calm     94.7% 0.0 mm 0 W/m2
00:59 9.7 °C 8.9 °C 1028.8 hPa Calm     95% 0.0 mm 0 W/m2
01:04 9.4 °C 8.6 °C 1028.8 hPa Calm     95% 0.0 mm 0 W/m2
01:09 9.4 °C 8.6 °C 1029.1 hPa Calm     95% 0.0 mm 0 W/m2
01:14 9.4 °C 8.6 °C 1029.1 hPa Calm     95% 0.0 mm 0 W/m2
01:19 9.4 °C 8.7 °C 1028.8 hPa Calm   4 km/h 95.1% 0.0 mm 0 W/m2
01:24 9.5 °C 8.7 °C 1028.8 hPa Calm   4 km/h 94.9% 0.0 mm 0 W/m2
01:29 9.5 °C 8.6 °C 1028.5 hPa Calm     94% 0.0 mm 0 W/m2
01:34 9.5 °C 8.7 °C 1028.5 hPa Calm     95% 0.0 mm 0 W/m2
01:39 9.4 °C 8.8 °C 1028.5 hPa Calm     96% 0.0 mm 0 W/m2
01:44 9.2 °C 8.6 °C 1028.5 hPa Calm     96% 0.0 mm 0 W/m2
01:49 9.2 °C 8.6 °C 1028.5 hPa Calm     96% 0.0 mm 0 W/m2
01:54 9.2 °C 8.5 °C 1028.5 hPa Calm     95.7% 0.0 mm 0 W/m2
01:59 9.3 °C 8.5 °C 1028.5 hPa Calm     95.1% 0.0 mm 0 W/m2
02:04 9.6 °C 8.7 °C 1028.5 hPa Calm     94% 0.0 mm 0 W/m2
02:09 9.5 °C 8.7 °C 1028.5 hPa Calm     94.4% 0.0 mm 0 W/m2
02:14 9.5 °C 8.7 °C 1028.5 hPa Calm     95% 0.0 mm 0 W/m2
02:19 9.5 °C 8.8 °C 1028.5 hPa Calm     96% 0.0 mm 0 W/m2
02:24 9.3 °C 8.7 °C 1028.5 hPa Calm     95.8% 0.0 mm 0 W/m2
02:29 9.3 °C 8.7 °C 1028.5 hPa Calm     96.1% 0.0 mm 0 W/m2
02:34 9.3 °C 8.7 °C 1028.5 hPa Calm     96.1% 0.0 mm 0 W/m2
02:39 9.2 °C 8.6 °C 1028.5 hPa Calm     96% 0.0 mm 0 W/m2
02:44 9 °C 8.4 °C 1028.5 hPa Calm     96.1% 0.0 mm 0 W/m2
02:49 9.1 °C 8.3 °C 1028.5 hPa Calm     95.1% 0.0 mm 0 W/m2
02:54 9.1 °C 8.4 °C 1028.1 hPa Calm     95.3% 0.0 mm 0 W/m2
02:59 9.1 °C 8.4 °C 1028.1 hPa Calm     95.4% 0.0 mm 0 W/m2
03:04 9.1 °C 8.5 °C 1028.1 hPa Calm     96% 0.0 mm 0 W/m2
03:09 9.1 °C 8.5 °C 1028.1 hPa Calm     96% 0.0 mm 0 W/m2
03:14 9.2 °C 8.6 °C 1028.1 hPa Calm     96% 0.0 mm 0 W/m2
03:19 9.2 °C 8.6 °C 1027.8 hPa Calm     96% 0.0 mm 0 W/m2
03:24 9 °C 8.5 °C 1027.8 hPa Calm     96.6% 0.0 mm 0 W/m2
03:29 9 °C 8.4 °C 1027.8 hPa Calm     96.4% 0.0 mm 0 W/m2
03:34 9 °C 8.4 °C 1027.8 hPa Calm     96.1% 0.0 mm 0 W/m2
03:39 9.1 °C 8.3 °C 1027.8 hPa Calm     95.2% 0.0 mm 0 W/m2
03:44 9.1 °C 8.5 °C 1027.4 hPa Calm     96.3% 0.0 mm 0 W/m2
03:49 9.1 °C 8.6 °C 1027.4 hPa Calm     96.6% 0.0 mm 0 W/m2
03:54 9.1 °C 8.5 °C 1027.8 hPa Calm   4 km/h 96.3% 0.0 mm 0 W/m2
03:59 9.1 °C 8.5 °C 1027.8 hPa Calm   4 km/h 96.6% 0.0 mm 0 W/m2
04:04 8.7 °C 8.3 °C 1027.8 hPa Calm     98% 0.0 mm 0 W/m2
04:09 8.6 °C 8.3 °C 1027.8 hPa Calm     98% 0.0 mm 0 W/m2
04:14 8.6 °C 8.3 °C 1027.8 hPa Calm   4 km/h 98% 0.0 mm 0 W/m2
04:19 8.6 °C 8.3 °C 1027.8 hPa West 0.4 km/h 4 km/h 97.8% 0.0 mm 0 W/m2
04:24 8.9 °C 8.4 °C 1027.8 hPa WNW 0.6 km/h 7.9 km/h 97% 0.0 mm 0 W/m2
04:29 9 °C 8.4 °C 1027.8 hPa SSW 0.2 km/h 7.9 km/h 96.3% 0.0 mm 0 W/m2
04:34 9 °C 8.5 °C 1027.8 hPa NW 0.7 km/h 7.9 km/h 97.2% 0.0 mm 0 W/m2
04:39 8.9 °C 8.5 °C 1027.8 hPa WSW 0.1 km/h 4 km/h 97.4% 0.0 mm 0 W/m2
04:44 8.6 °C 8.4 °C 1027.8 hPa Calm     98.2% 0.0 mm 0 W/m2
04:49 8.6 °C 8.5 °C 1027.8 hPa Calm   7.9 km/h 98.8% 0.0 mm 0 W/m2
04:54 8.6 °C 8.3 °C 1027.8 hPa Calm   7.9 km/h 98% 0.0 mm 0 W/m2
04:59 8.6 °C 8.3 °C 1027.8 hPa Calm     98% 0.0 mm 0 W/m2
05:04 8.3 °C 8.3 °C 1028.1 hPa Calm     99% 0.0 mm 0 W/m2
05:09 8.3 °C 8.2 °C 1027.8 hPa Calm     99% 0.0 mm 0 W/m2
05:14 8.3 °C 8.2 °C 1028.1 hPa Calm     99% 0.0 mm 0 W/m2
05:19 8.3 °C 8.2 °C 1028.1 hPa WNW 0.9 km/h 7.9 km/h 99% 0.0 mm 0 W/m2
05:24 8.5 °C 8.4 °C 1027.8 hPa Calm   7.9 km/h 99% 0.0 mm 0 W/m2
05:29 8.5 °C 8.4 °C 1027.8 hPa Calm   4 km/h 99% 0.0 mm 0 W/m2
05:34 8.5 °C 8.4 °C 1027.8 hPa Calm   4 km/h 99% 0.0 mm 0 W/m2
05:39 8.5 °C 8.4 °C 1027.8 hPa WSW 0.6 km/h 7.9 km/h 99% 0.0 mm 0 W/m2
05:44 8.4 °C 8.3 °C 1027.8 hPa Calm     99% 0.0 mm 0 W/m2
05:49 8.4 °C 8.3 °C 1027.8 hPa Calm   4 km/h 99% 0.0 mm 0 W/m2
05:54 8.4 °C 8.1 °C 1027.8 hPa Calm   4 km/h 98.1% 0.0 mm 0 W/m2
05:59 8.4 °C 8.3 °C 1027.8 hPa Calm     99% 0.0 mm 0 W/m2
06:04 8.3 °C 8.1 °C 1027.8 hPa Calm     99% 0.0 mm 0 W/m2
06:09 8.2 °C 8.1 °C 1027.8 hPa Calm     99% 0.0 mm 0 W/m2
06:14 8.2 °C 8 °C 1027.8 hPa Calm     99% 0.0 mm 0 W/m2
06:19 8.1 °C 8 °C 1027.8 hPa Calm     99% 0.0 mm 0 W/m2
06:24 8.1 °C 8 °C 1027.8 hPa WNW 0.2 km/h 4 km/h 99% 0.0 mm 0 W/m2
06:29 8.1 °C 8 °C 1027.8 hPa Calm   4 km/h 99% 0.0 mm 0 W/m2
06:34 8.1 °C 8 °C 1027.8 hPa Calm   4 km/h 99% 0.0 mm 0 W/m2
06:39 8.1 °C 8 °C 1027.4 hPa Calm     99% 0.0 mm 0 W/m2
06:44 8.1 °C 8 °C 1027.8 hPa Calm     99% 0.0 mm 0 W/m2
06:49 8 °C 7.9 °C 1027.8 hPa NW 0.4 km/h 4 km/h 99% 0.0 mm 0 W/m2
06:54 8 °C 7.9 °C 1027.8 hPa Calm   4 km/h 99% 0.0 mm 0 W/m2
06:59 8 °C 7.9 °C 1027.4 hPa WSW 0.4 km/h 4 km/h 99% 0.0 mm 0 W/m2
07:04 8 °C 7.9 °C 1027.8 hPa Calm   4 km/h 99% 0.0 mm 0 W/m2
07:09 8 °C 7.9 °C 1027.8 hPa Calm     99% 0.0 mm 0 W/m2
07:14 8 °C 7.9 °C 1027.4 hPa Calm     99% 0.0 mm 3 W/m2
07:19 8 °C 7.9 °C 1027.4 hPa Calm     99% 0.0 mm 6 W/m2
07:24 8.2 °C 8.1 °C 1027.8 hPa Calm     99% 0.0 mm 10 W/m2
07:29 8.3 °C 8 °C 1027.8 hPa Calm     98.2% 0.0 mm 17 W/m2
07:34 8.4 °C 8 °C 1027.8 hPa Calm     97.4% 0.0 mm 22 W/m2
07:39 8.5 °C 8 °C 1027.8 hPa Calm     96.6% 0.0 mm 27 W/m2
07:44 9.3 °C 8.5 °C 1027.8 hPa Calm     95.1% 0.0 mm 34 W/m2
07:49 9.8 °C 8.5 °C 1028.1 hPa Calm     91.3% 0.0 mm 39 W/m2
07:54 10 °C 8.6 °C 1028.1 hPa Calm     91.1% 0.0 mm 44 W/m2
07:59 10.2 °C 8.7 °C 1028.1 hPa Calm     91% 0.0 mm 48 W/m2
08:04 10.5 °C 9.1 °C 1028.1 hPa Calm   4 km/h 91.3% 0.0 mm 53 W/m2
08:09 10.6 °C 9.3 °C 1028.1 hPa NE 0.3 km/h 4 km/h 91.6% 0.0 mm 56 W/m2
08:14 10.6 °C 9.2 °C 1028.1 hPa Calm     91.1% 0.0 mm 59 W/m2
08:19 10.6 °C 9.2 °C 1028.1 hPa Calm     91.1% 0.0 mm 63 W/m2
08:24 10.6 °C 9.2 °C 1028.1 hPa Calm     91% 0.0 mm 67 W/m2
08:29 10.6 °C 9.2 °C 1028.5 hPa North 1.4 km/h 7.9 km/h 91% 0.0 mm 70 W/m2
08:34 10.6 °C 9.2 °C 1028.5 hPa Calm   4 km/h 91% 0.0 mm 73 W/m2
08:39 10.7 °C 9.3 °C 1028.5 hPa Calm     91% 0.0 mm 75 W/m2
08:44 10.9 °C 9.4 °C 1028.5 hPa Calm   4 km/h 90.8% 0.0 mm 77 W/m2
08:49 11 °C 9.6 °C 1028.5 hPa NNE 0.1 km/h 7.9 km/h 91% 0.0 mm 79 W/m2
08:54 11.1 °C 9.6 °C 1028.5 hPa NNE 0.3 km/h 7.9 km/h 90.4% 0.0 mm 82 W/m2
08:59 11.1 °C 9.4 °C 1028.5 hPa NNE 0.5 km/h 7.9 km/h 89.2% 0.0 mm 83 W/m2
09:04 11.4 °C 9.8 °C 1028.5 hPa Calm   7.9 km/h 89.9% 0.0 mm 84 W/m2
09:09 11.7 °C 10 °C 1028.1 hPa Calm     89.4% 0.0 mm 85 W/m2
09:14 11.7 °C 10 °C 1028.1 hPa Calm   4 km/h 89.6% 0.0 mm 86 W/m2
09:19 11.7 °C 9.9 °C 1028.1 hPa Calm     88.9% 0.0 mm 87 W/m2
09:24 12.2 °C 10.1 °C 1028.1 hPa NE 0.3 km/h 7.9 km/h 86.8% 0.0 mm 87 W/m2
09:29 12.8 °C 10.8 °C 1028.1 hPa Calm   7.9 km/h 87.5% 0.0 mm 88 W/m2
09:34 12.7 °C 10.7 °C 1028.1 hPa Calm     87.3% 0.0 mm 89 W/m2
09:38 12.7 °C 10.5 °C 1028.5 hPa Calm   7.9 km/h 86.7% 0.0 mm 90 W/m2
09:44 12.8 °C 10.4 °C 1028.1 hPa Calm   4 km/h 85.4% 0.0 mm 90 W/m2
09:49 13.2 °C 10.7 °C 1028.1 hPa SSE 0.7 km/h 12.2 km/h 84.8% 0.0 mm 92 W/m2
09:54 13.2 °C 10.8 °C 1028.5 hPa ESE 0.7 km/h 7.9 km/h 85.6% 0.0 mm 93 W/m2
09:59 13.1 °C 10.8 °C 1028.1 hPa SE 0.8 km/h 7.9 km/h 85.9% 0.0 mm 96 W/m2
10:04 12.9 °C 10.7 °C 1028.1 hPa Calm   4 km/h 86.7% 0.0 mm 98 W/m2
10:09 12.4 °C 10.1 °C 1028.1 hPa Calm     86.2% 0.0 mm 101 W/m2
10:14 12.6 °C 9.9 °C 1027.8 hPa Calm     83.6% 0.0 mm 104 W/m2
10:19 12.7 °C 10.3 °C 1027.8 hPa ENE 0.2 km/h 4 km/h 85.4% 0.0 mm 107 W/m2
10:24 13 °C 10.4 °C 1027.8 hPa SE 0.7 km/h 7.9 km/h 84% 0.0 mm 110 W/m2
10:29 13.4 °C 10.9 °C 1027.8 hPa SSE 0.8 km/h 7.9 km/h 85.1% 0.0 mm 114 W/m2
10:34 13.3 °C 11.1 °C 1027.8 hPa ESE 1 km/h 7.9 km/h 86.4% 0.0 mm 118 W/m2
10:39 13.3 °C 11 °C 1027.8 hPa East 0.1 km/h 7.9 km/h 86.3% 0.0 mm 122 W/m2
10:44 13.2 °C 10.8 °C 1027.8 hPa East 0.2 km/h 4 km/h 85.9% 0.0 mm 128 W/m2
10:49 13.1 °C 11 °C 1027.8 hPa Calm   4 km/h 86.8% 0.0 mm 132 W/m2
10:54 13.1 °C 10.9 °C 1027.8 hPa ENE 0.3 km/h 4 km/h 86.6% 0.0 mm 137 W/m2
10:59 13.1 °C 11.1 °C 1027.8 hPa Calm   4 km/h 87.6% 0.0 mm 143 W/m2
11:04 13.2 °C 11 °C 1027.8 hPa ESE 0.2 km/h 12.2 km/h 86.2% 0.0 mm 149 W/m2
11:09 13.6 °C 11.3 °C 1027.8 hPa SSE 1.4 km/h 7.9 km/h 85.8% 0.0 mm 154 W/m2
11:14 13.6 °C 11.1 °C 1027.4 hPa SE 0.5 km/h 7.9 km/h 84.8% 0.0 mm 160 W/m2
11:19 13.6 °C 11 °C 1027.4 hPa SSE 0.5 km/h 4 km/h 84.8% 0.0 mm 166 W/m2
11:24 13.8 °C 11 °C 1027.4 hPa ESE 0.5 km/h 7.9 km/h 83.6% 0.0 mm 171 W/m2
11:29 14.1 °C 11.4 °C 1027.1 hPa South 2 km/h 12.2 km/h 83.7% 0.0 mm 166 W/m2
11:34 14.1 °C 11.4 °C 1027.1 hPa SE 2.7 km/h 12.2 km/h 83.8% 0.0 mm 160 W/m2
11:39 14.2 °C 11.4 °C 1027.1 hPa SE 0.9 km/h 12.2 km/h 83.3% 0.0 mm 144 W/m2
11:44 14.3 °C 11.5 °C 1026.8 hPa SSE 1.5 km/h 7.9 km/h 83.3% 0.0 mm 155 W/m2
11:49 14.4 °C 11.8 °C 1026.8 hPa SSW 0.3 km/h 7.9 km/h 84.3% 0.0 mm 213 W/m2
11:54 14.3 °C 11.9 °C 1026.8 hPa SSE 3 km/h 16.3 km/h 85.4% 0.0 mm 180 W/m2
11:59 14.2 °C 11.8 °C 1026.4 hPa SSE 0.6 km/h 12.2 km/h 85.9% 0.0 mm 187 W/m2
12:04 14 °C 11.7 °C 1026.4 hPa ESE 1.8 km/h 7.9 km/h 86.2% 0.0 mm 239 W/m2
12:09 13.5 °C 11.4 °C 1026.1 hPa ESE 0.9 km/h 7.9 km/h 87.2% 0.0 mm 246 W/m2
12:14 13.5 °C 11.3 °C 1026.1 hPa SE 1.7 km/h 16.3 km/h 86.8% 0.0 mm 259 W/m2
12:19 13.5 °C 11.4 °C 1025.7 hPa East 0.8 km/h 16.3 km/h 86.9% 0.0 mm 230 W/m2
12:24 13.6 °C 11.4 °C 1025.7 hPa Calm   4 km/h 86.6% 0.0 mm 279 W/m2
12:29 14.1 °C 11.7 °C 1025.7 hPa SSE 0.6 km/h 7.9 km/h 85.6% 0.0 mm 286 W/m2
12:34 14.1 °C 11.5 °C 1025.7 hPa SE 1.9 km/h 12.2 km/h 84.6% 0.0 mm 302 W/m2
12:39 14.2 °C 11.5 °C 1025.7 hPa SSE 2.3 km/h 16.3 km/h 83.8% 0.0 mm 317 W/m2
12:44 14.3 °C 11.6 °C 1025.4 hPa SSE 0.9 km/h 16.3 km/h 83.7% 0.0 mm 331 W/m2
12:49 14.3 °C 11.8 °C 1025.4 hPa ESE 2.6 km/h 12.2 km/h 84.8% 0.0 mm 338 W/m2
12:54 14.4 °C 11.6 °C 1025.4 hPa South 3.1 km/h 12.2 km/h 83.8% 0.0 mm 348 W/m2
12:59 14.4 °C 11.6 °C 1025.4 hPa SE 0.5 km/h 12.2 km/h 83.1% 0.0 mm 350 W/m2
13:04 14.6 °C 11.6 °C 1025.1 hPa SSE 2.6 km/h 12.2 km/h 82.2% 0.0 mm 347 W/m2
13:09 15.2 °C 12.1 °C 1025.1 hPa SSE 3.4 km/h 12.2 km/h 82% 0.0 mm 350 W/m2
13:14 15.2 °C 12.2 °C 1025.1 hPa SE 3.3 km/h 12.2 km/h 82.6% 0.0 mm 353 W/m2
13:19 15.1 °C 12.3 °C 1024.7 hPa SSE 1.1 km/h 12.2 km/h 83.3% 0.0 mm 347 W/m2
13:24 15 °C 12.1 °C 1024.7 hPa SSE 3.4 km/h 12.2 km/h 82.6% 0.0 mm 347 W/m2
13:29 14.5 °C 11.7 °C 1024.7 hPa Calm   12.2 km/h 83.8% 0.0 mm 345 W/m2
13:34 14.5 °C 11.6 °C 1024.7 hPa SSE 3.5 km/h 12.2 km/h 83.2% 0.0 mm 353 W/m2
13:39 14.6 °C 11.6 °C 1024.4 hPa SSE 0.2 km/h 7.9 km/h 82.2% 0.0 mm 349 W/m2
13:44 14.7 °C 11.7 °C 1024.4 hPa SSW 1.9 km/h 7.9 km/h 81.8% 0.0 mm 341 W/m2
13:49 15.3 °C 12.1 °C 1024.4 hPa South 1.2 km/h 7.9 km/h 81.3% 0.0 mm 350 W/m2
13:54 15.3 °C 12.1 °C 1024.4 hPa SSE 0.7 km/h 12.2 km/h 81.3% 0.0 mm 350 W/m2
13:59 15.3 °C 12.1 °C 1024.0 hPa South 1.4 km/h 7.9 km/h 80.9% 0.0 mm 351 W/m2
14:04 15.3 °C 12.1 °C 1024.0 hPa SE 0.2 km/h 4 km/h 81.2% 0.0 mm 357 W/m2
14:09 15.2 °C 12 °C 1024.0 hPa SE 2.6 km/h 12.2 km/h 81.2% 0.0 mm 295 W/m2
14:14 15.2 °C 12 °C 1023.7 hPa South 0.9 km/h 12.2 km/h 81.9% 0.0 mm 347 W/m2
14:19 15.1 °C 12 °C 1023.7 hPa SSE 1.7 km/h 7.9 km/h 81.8% 0.0 mm 345 W/m2
14:24 15.2 °C 12 °C 1023.7 hPa South 2.8 km/h 12.2 km/h 81.1% 0.0 mm 345 W/m2
14:29 15.2 °C 12.1 °C 1023.4 hPa SSE 1.8 km/h 12.2 km/h 81.7% 0.0 mm 324 W/m2
14:34 15.2 °C 12 °C 1023.4 hPa SSE 0.8 km/h 4 km/h 81% 0.0 mm 309 W/m2
14:39 15.3 °C 12.1 °C 1023.4 hPa SE 0.8 km/h 7.9 km/h 81.3% 0.0 mm 312 W/m2
14:44 15.3 °C 12.1 °C 1023.4 hPa South 0.4 km/h 7.9 km/h 81% 0.0 mm 317 W/m2
14:49 15.6 °C 12.3 °C 1023.0 hPa SE 0.4 km/h 7.9 km/h 80.8% 0.0 mm 304 W/m2
14:54 15.6 °C 12.2 °C 1023.0 hPa Calm     79.8% 0.0 mm 314 W/m2
14:59 15.7 °C 12.1 °C 1023.0 hPa Calm   4 km/h 79.1% 0.0 mm 313 W/m2
15:04 15.8 °C 12.2 °C 1023.0 hPa SE 0.6 km/h 7.9 km/h 79% 0.0 mm 312 W/m2
15:09 16.1 °C 12.5 °C 1022.7 hPa Calm   4 km/h 78.7% 0.0 mm 252 W/m2
15:14 16.2 °C 12.6 °C 1022.7 hPa SE 0.4 km/h 4 km/h 79.4% 0.0 mm 247 W/m2
15:19 16.1 °C 12.6 °C 1022.7 hPa Calm   4 km/h 79.9% 0.0 mm 289 W/m2
15:24 16 °C 12.5 °C 1022.7 hPa SE 0.5 km/h 7.9 km/h 79.3% 0.0 mm 285 W/m2
15:29 15.6 °C 12.1 °C 1022.7 hPa ESE 0.8 km/h 7.9 km/h 79.6% 0.0 mm 274 W/m2
15:34 15.5 °C 12.1 °C 1022.7 hPa Calm   7.9 km/h 80% 0.0 mm 258 W/m2
15:39 15.5 °C 12.3 °C 1022.4 hPa SSE 0.6 km/h 7.9 km/h 80.9% 0.0 mm 224 W/m2
15:44 15.4 °C 12.5 °C 1022.4 hPa South 0.3 km/h 4 km/h 82.7% 0.0 mm 62 W/m2
15:49 14.5 °C 11.8 °C 1022.4 hPa Calm     83.9% 0.0 mm 57 W/m2
15:54 14.3 °C 11.8 °C 1022.4 hPa Calm     85% 0.0 mm 53 W/m2
15:59 14.3 °C 11.8 °C 1022.4 hPa Calm     85.3% 0.0 mm 50 W/m2
16:04 14.2 °C 12 °C 1022.4 hPa SSW 0.4 km/h 4 km/h 86.7% 0.0 mm 46 W/m2
16:09 13.6 °C 11.5 °C 1022.4 hPa Calm     87% 0.0 mm 44 W/m2
16:14 13.5 °C 11.5 °C 1022.4 hPa Calm     87.4% 0.0 mm 41 W/m2
16:19 13.5 °C 11.6 °C 1022.4 hPa Calm     88% 0.0 mm 39 W/m2
16:24 13.4 °C 11.5 °C 1022.4 hPa Calm     88.3% 0.0 mm 36 W/m2
16:29 12.8 °C 11.2 °C 1022.4 hPa Calm     90.1% 0.0 mm 32 W/m2
16:34 12.6 °C 11.2 °C 1022.4 hPa Calm     91.2% 0.0 mm 30 W/m2
16:39 12.6 °C 11.2 °C 1022.4 hPa Calm     91.3% 0.0 mm 27 W/m2
16:44 12.5 °C 11.2 °C 1022.4 hPa Calm     91.6% 0.0 mm 23 W/m2
16:49 12.2 °C 11 °C 1022.4 hPa Calm     92.8% 0.0 mm 20 W/m2
16:54 12 °C 10.9 °C 1022.4 hPa Calm     92.9% 0.0 mm 18 W/m2
16:59 12 °C 10.9 °C 1022.4 hPa Calm     93% 0.0 mm 13 W/m2
17:04 12 °C 10.9 °C 1022.4 hPa Calm     92.9% 0.0 mm 10 W/m2
17:09 11.8 °C 10.8 °C 1022.4 hPa Calm     93.6% 0.0 mm 7 W/m2
17:14 11.6 °C 10.8 °C 1022.0 hPa Calm     94.7% 0.0 mm 5 W/m2
17:19 11.6 °C 10.7 °C 1022.0 hPa Calm     94% 0.0 mm 2 W/m2
17:24 11.6 °C 10.7 °C 1022.0 hPa Calm     94.3% 0.0 mm 0 W/m2
17:29 11.5 °C 10.6 °C 1022.4 hPa Calm     94.1% 0.0 mm 0 W/m2
17:34 11.4 °C 10.5 °C 1022.4 hPa Calm     94% 0.0 mm 0 W/m2
17:39 11.4 °C 10.6 °C 1022.4 hPa Calm     94.9% 0.0 mm 0 W/m2
17:44 11.4 °C 10.6 °C 1022.4 hPa Calm     94.8% 0.0 mm 0 W/m2
17:49 11.3 °C 10.5 °C 1022.4 hPa Calm     95% 0.0 mm 0 W/m2
17:54 11.3 °C 10.5 °C 1022.4 hPa Calm     95.1% 0.0 mm 0 W/m2
17:59 11.2 °C 10.5 °C 1022.4 hPa Calm     95.3% 0.0 mm 0 W/m2
18:04 11.2 °C 10.4 °C 1022.4 hPa Calm     95% 0.0 mm 0 W/m2
18:09 11.3 °C 10.5 °C 1022.4 hPa Calm     95% 0.0 mm 0 W/m2
18:14 11.3 °C 10.5 °C 1022.4 hPa Calm     95% 0.0 mm 0 W/m2
18:19 11.3 °C 10.5 °C 1022.4 hPa Calm     95% 0.0 mm 0 W/m2
18:24 11.3 °C 10.5 °C 1022.4 hPa Calm     95% 0.0 mm 0 W/m2
18:29 11.3 °C 10.5 °C 1022.4 hPa Calm     95% 0.0 mm 0 W/m2
18:34 11.3 °C 10.6 °C 1022.4 hPa Calm     95.3% 0.0 mm 0 W/m2
18:39 11.3 °C 10.8 °C 1022.4 hPa Calm     96.6% 0.0 mm 0 W/m2
18:44 11.2 °C 10.7 °C 1022.7 hPa Calm     96.9% 0.0 mm 0 W/m2
18:49 11 °C 10.5 °C 1022.4 hPa Calm     97% 0.0 mm 0 W/m2
18:54 10.8 °C 10.2 °C 1022.4 hPa Calm     96% 0.0 mm 0 W/m2
18:59 10.8 °C 10 °C 1022.4 hPa Calm     95% 0.0 mm 0 W/m2
19:04 10.8 °C 10.1 °C 1022.4 hPa Calm     95% 0.0 mm 0 W/m2
19:09 10.9 °C 10.2 °C 1022.4 hPa Calm     95.9% 0.0 mm 0 W/m2
19:14 10.8 °C 10.1 °C 1022.7 hPa Calm     95.7% 0.0 mm 0 W/m2
19:19 10.8 °C 10 °C 1022.7 hPa Calm     95% 0.0 mm 0 W/m2
19:24 10.9 °C 10 °C 1022.4 hPa Calm     94.1% 0.0 mm 0 W/m2
19:29 11 °C 10.1 °C 1022.7 hPa Calm     94% 0.0 mm 0 W/m2
19:34 11.1 °C 10.2 °C 1022.4 hPa Calm     94% 0.0 mm 0 W/m2
19:39 11.1 °C 10.2 °C 1022.4 hPa Calm     93.9% 0.0 mm 0 W/m2
19:44 11.1 °C 10.2 °C 1022.4 hPa Calm     93.9% 0.0 mm 0 W/m2
19:49 11.1 °C 10.1 °C 1022.4 hPa Calm     93.9% 0.0 mm 0 W/m2
19:54 11 °C 9.8 °C 1022.7 hPa Calm     92.6% 0.0 mm 0 W/m2
19:59 11 °C 9.8 °C 1022.4 hPa Calm     92% 0.0 mm 0 W/m2
20:04 11.1 °C 9.7 °C 1022.4 hPa Calm     91% 0.0 mm 0 W/m2
20:09 11.2 °C 9.8 °C 1022.4 hPa Calm     91% 0.0 mm 0 W/m2
20:14 11.3 °C 9.9 °C 1022.4 hPa Calm     91% 0.0 mm 0 W/m2
20:19 11.3 °C 9.9 °C 1022.4 hPa Calm     91% 0.0 mm 0 W/m2
20:24 11.3 °C 9.9 °C 1022.4 hPa Calm     91% 0.0 mm 0 W/m2
20:29 11.3 °C 9.9 °C 1022.4 hPa Calm     90.6% 0.0 mm 0 W/m2
20:34 11.4 °C 9.9 °C 1022.4 hPa Calm     90.7% 0.0 mm 0 W/m2
20:39 11.4 °C 10 °C 1022.4 hPa Calm     91.2% 0.0 mm 0 W/m2
20:44 11.4 °C 10.1 °C 1022.4 hPa Calm     91.8% 0.0 mm 0 W/m2
20:49 11.4 °C 10.1 °C 1022.4 hPa Calm     91.6% 0.0 mm 0 W/m2
20:54 11.4 °C 10.1 °C 1022.7 hPa Calm     92% 0.0 mm 0 W/m2
20:59 11.3 °C 10.3 °C 1022.7 hPa Calm     93.4% 0.0 mm 0 W/m2
21:04 11.3 °C 10.5 °C 1022.4 hPa Calm     94.6% 0.0 mm 0 W/m2
21:09 11.2 °C 10.4 °C 1022.7 hPa Calm     95% 0.0 mm 0 W/m2
21:14 11.1 °C 10.2 °C 1022.7 hPa Calm     94.2% 0.0 mm 0 W/m2
21:19 11.2 °C 10.2 °C 1022.7 hPa Calm     93.7% 0.0 mm 0 W/m2
21:24 11.2 °C 10.3 °C 1022.7 hPa Calm     94.2% 0.0 mm 0 W/m2
21:29 11.3 °C 10.3 °C 1022.7 hPa Calm     94.3% 0.0 mm 0 W/m2
21:34 11.4 °C 10.3 °C 1022.4 hPa Calm     93% 0.0 mm 0 W/m2
21:39 11.4 °C 10.3 °C 1022.4 hPa Calm     93% 0.0 mm 0 W/m2
21:44 11.4 °C 10.2 °C 1022.4 hPa Calm     92.3% 0.0 mm 0 W/m2
21:49 11.4 °C 10.1 °C 1022.4 hPa Calm     92% 0.0 mm 0 W/m2
21:54 11.5 °C 10.2 °C 1022.4 hPa Calm     92% 0.0 mm 0 W/m2
21:59 11.5 °C 10.1 °C 1022.4 hPa Calm     91.2% 0.0 mm 0 W/m2
22:04 11.5 °C 10.2 °C 1022.4 hPa Calm     92% 0.0 mm 0 W/m2
22:09 11.4 °C 10.5 °C 1022.4 hPa Calm     93.8% 0.0 mm 0 W/m2
22:14 11.2 °C 10.1 °C 1022.4 hPa Calm     92.9% 0.0 mm 0 W/m2
22:19 11.2 °C 10.2 °C 1022.4 hPa Calm     93.4% 0.0 mm 0 W/m2
22:24 11.1 °C 10.2 °C 1022.4 hPa Calm     94% 0.0 mm 0 W/m2
22:29 11.1 °C 9.9 °C 1022.4 hPa Calm     92.6% 0.0 mm 0 W/m2
22:34 11.3 °C 10 °C 1022.7 hPa Calm     92% 0.0 mm 0 W/m2
22:39 11.3 °C 10 °C 1022.4 hPa Calm     92% 0.0 mm 0 W/m2
22:44 11.3 °C 10.1 °C 1022.4 hPa Calm     92.3% 0.0 mm 0 W/m2
22:49 11.3 °C 10.1 °C 1022.4 hPa Calm     92.4% 0.0 mm 0 W/m2
22:54 11.1 °C 10.1 °C 1022.4 hPa Calm     93.3% 0.0 mm 0 W/m2
22:59 11.1 °C 10.2 °C 1022.4 hPa Calm     94% 0.0 mm 0 W/m2
23:04 11.1 °C 10 °C 1022.4 hPa Calm     93% 0.0 mm 0 W/m2
23:09 11 °C 9.9 °C 1022.4 hPa Calm     93% 0.0 mm 0 W/m2
23:14 11.2 °C 10 °C 1022.4 hPa Calm     92.4% 0.0 mm 0 W/m2
23:19 11.1 °C 10 °C 1022.4 hPa Calm     93% 0.0 mm 0 W/m2
23:24 11.1 °C 10 °C 1022.4 hPa Calm     93% 0.0 mm 0 W/m2
23:29 11.1 °C 10 °C 1022.4 hPa Calm     93% 0.0 mm 0 W/m2
23:34 11 °C 9.9 °C 1022.4 hPa Calm     93% 0.0 mm 0 W/m2
23:39 11 °C 9.9 °C 1022.7 hPa Calm     93% 0.0 mm 0 W/m2
23:44 11 °C 9.9 °C 1022.4 hPa Calm     93.2% 0.0 mm 0 W/m2
23:49 10.9 °C 10 °C 1022.4 hPa Calm     94% 0.0 mm 0 W/m2
23:54 10.5 °C 9.7 °C 1022.4 hPa Calm     94.8% 0.0 mm 0 W/m2
23:59 10.4 °C 9.7 °C 1022.7 hPa Calm     95.3% 0.0 mm 0 W/m2
Juneau County Weather
Compliments of Weather Underground - 2 mb